地図

経路データ

SID SEASON NUMBER BASIN SUBBASIN NAME ISO_TIME NATURE LAT LON WMO_WIND WMO_PRES WMO_AGENCY TRACK_TYPE DIST2LAND LANDFALL IFLAG USA_AGENCY USA_ATCF_ID USA_LAT USA_LON USA_RECORD USA_STATUS USA_WIND USA_PRES USA_SSHS USA_R34_NE USA_R34_SE USA_R34_SW USA_R34_NW USA_R50_NE USA_R50_SE USA_R50_SW USA_R50_NW USA_R64_NE USA_R64_SE USA_R64_SW USA_R64_NW USA_POCI USA_ROCI USA_RMW USA_EYE TOKYO_LAT TOKYO_LON TOKYO_GRADE TOKYO_WIND TOKYO_PRES TOKYO_R50_DIR TOKYO_R50_LONG TOKYO_R50_SHORT TOKYO_R30_DIR TOKYO_R30_LONG TOKYO_R30_SHORT TOKYO_LAND CMA_LAT CMA_LON CMA_CAT CMA_WIND CMA_PRES HKO_LAT HKO_LON HKO_CAT HKO_WIND HKO_PRES NEWDELHI_LAT NEWDELHI_LON NEWDELHI_GRADE NEWDELHI_WIND NEWDELHI_PRES NEWDELHI_CI NEWDELHI_DP NEWDELHI_POCI REUNION_LAT REUNION_LON REUNION_TYPE REUNION_WIND REUNION_PRES REUNION_TNUM REUNION_CI REUNION_RMW REUNION_R34_NE REUNION_R34_SE REUNION_R34_SW REUNION_R34_NW REUNION_R50_NE REUNION_R50_SE REUNION_R50_SW REUNION_R50_NW REUNION_R64_NE REUNION_R64_SE REUNION_R64_SW REUNION_R64_NW BOM_LAT BOM_LON BOM_TYPE BOM_WIND BOM_PRES BOM_TNUM BOM_CI BOM_RMW BOM_R34_NE BOM_R34_SE BOM_R34_SW BOM_R34_NW BOM_R50_NE BOM_R50_SE BOM_R50_SW BOM_R50_NW BOM_R64_NE BOM_R64_SE BOM_R64_SW BOM_R64_NW BOM_ROCI BOM_POCI BOM_EYE BOM_POS_METHOD BOM_PRES_METHOD NADI_LAT NADI_LON NADI_CAT NADI_WIND NADI_PRES WELLINGTON_LAT WELLINGTON_LON WELLINGTON_WIND WELLINGTON_PRES DS824_LAT DS824_LON DS824_STAGE DS824_WIND DS824_PRES TD9636_LAT TD9636_LON TD9636_STAGE TD9636_WIND TD9636_PRES TD9635_LAT TD9635_LON TD9635_WIND TD9635_PRES TD9635_ROCI NEUMANN_LAT NEUMANN_LON NEUMANN_CLASS NEUMANN_WIND NEUMANN_PRES MLC_LAT MLC_LON MLC_CLASS MLC_WIND MLC_PRES USA_GUST BOM_GUST BOM_GUST_PER REUNION_GUST REUNION_GUST_PER USA_SEAHGT USA_SEARAD_NE USA_SEARAD_SE USA_SEARAD_SW USA_SEARAD_NW STORM_SPEED STORM_DIR
1864294N15326 1864 19 NA NA NOT_NAMED 1864-10-19 12:00:00 TS 14.5000 -34.5000 main 1829 1829 _____________O -1 14.5000 -34.5000 TD 25 2 264
1864294N15326 1864 19 NA NA NOT_NAMED 1864-10-19 15:00:00 TS 14.4900 -34.5900 main 1840 1840 _____________P -1 14.4900 -34.5900 TD 27 2 270
1864294N15326 1864 19 NA NA NOT_NAMED 1864-10-19 18:00:00 TS 14.5000 -34.7000 main 1851 1851 _____________O -1 14.5000 -34.7000 TD 30 3 282
1864294N15326 1864 19 NA NA NOT_NAMED 1864-10-19 21:00:00 TS 14.5425 -34.8425 main 1862 1862 _____________P -1 14.5425 -34.8425 TD 32 3 289
1864294N15326 1864 19 NA NA NOT_NAMED 1864-10-20 00:00:00 TS 14.6000 -35.0000 main 1883 1883 _____________O -1 14.6000 -35.0000 TS 35 3 290
1864294N15326 1864 19 NA NA NOT_NAMED 1864-10-20 03:00:00 TS 14.6500 -35.1575 main 1904 1904 _____________P -1 14.6500 -35.1575 TS 37 3 289
1864294N15326 1864 19 NA NA NOT_NAMED 1864-10-20 06:00:00 TS 14.7000 -35.3000 main 1914 1914 _____________O -1 14.7000 -35.3000 TS 40 2 292
1864294N15326 1864 19 NA NA NOT_NAMED 1864-10-20 09:00:00 TS 14.7425 -35.3925 main 1925 1925 _____________P -1 14.7425 -35.3925 TS 42 2 297
1864294N15326 1864 19 NA NA NOT_NAMED 1864-10-20 12:00:00 TS 14.8000 -35.5000 main 1935 1935 _____________O -1 14.8000 -35.5000 TS 45 3 299
1864294N15326 1864 19 NA NA NOT_NAMED 1864-10-20 15:00:00 TS 14.9000 -35.6850 main 1957 1957 _____________P -1 14.9000 -35.6850 TS 47 4 297
1864294N15326 1864 19 NA NA NOT_NAMED 1864-10-20 18:00:00 TS 15.0000 -35.9000 main 1978 1978 _____________O -1 15.0000 -35.9000 TS 50 4 291
1864294N15326 1864 19 NA NA NOT_NAMED 1864-10-20 21:00:00 TS 15.0500 -36.1001 main 1999 1999 _____________P -1 15.0500 -36.1001 TS 52 4 285
1864294N15326 1864 19 NA NA NOT_NAMED 1864-10-21 00:00:00 TS 15.1000 -36.3000 main 2020 2020 _____________O -1 15.1000 -36.3000 TS 55 4 291
1864294N15326 1864 19 NA NA NOT_NAMED 1864-10-21 03:00:00 TS 15.2000 -36.5000 main 2028 2017 _____________P -1 15.2000 -36.5000 TS 57 4 297
1864294N15326 1864 19 NA NA NOT_NAMED 1864-10-21 06:00:00 TS 15.3000 -36.7000 main 2017 2000 _____________O -1 15.3000 -36.7000 TS 60 4 285
1864294N15326 1864 19 NA NA NOT_NAMED 1864-10-21 09:00:00 TS 15.3125 -36.9226 main 2000 1983 _____________P -1 15.3125 -36.9226 TS 60 4 285
1864294N15326 1864 19 NA NA NOT_NAMED 1864-10-21 12:00:00 TS 15.4000 -37.1000 main 1990 1990 _____________O -1 15.4000 -37.1000 TS 60 5 329
1864294N15326 1864 19 NA NA NOT_NAMED 1864-10-21 15:00:00 TS 15.7125 -37.1725 main 2002 2002 _____________P -1 15.7125 -37.1725 TS 65 7 352
1864294N15326 1864 19 NA NA NOT_NAMED 1864-10-21 18:00:00 TS 16.1000 -37.2000 main 2030 2030 _____________O -1 16.1000 -37.2000 HU 70 7 353
1864294N15326 1864 19 NA NA NOT_NAMED 1864-10-21 21:00:00 TS 16.4000 -37.2500 main 2043 2043 _____________P -1 16.4000 -37.2500 HU 72 6 351
1864294N15326 1864 19 NA NA NOT_NAMED 1864-10-22 00:00:00 TS 16.7000 -37.3000 main 2065 2065 _____________O -1 16.7000 -37.3000 HU 75 7 351
1864294N15326 1864 19 NA NA NOT_NAMED 1864-10-22 03:00:00 TS 17.0500 -37.3500 main 2094 2079 _____________P -1 17.0500 -37.3500 HU 75 7 352
1864294N15326 1864 19 NA NA NOT_NAMED 1864-10-22 06:00:00 TS 17.4000 -37.4000 main 2109 2109 _____________O -1 17.4000 -37.4000 HU 75 6 350
1864294N15326 1864 19 NA NA NOT_NAMED 1864-10-22 09:00:00 TS 17.6550 -37.4575 main 2124 2124 _____________P -1 17.6550 -37.4575 HU 75 6 351
1864294N15326 1864 19 NA NA NOT_NAMED 1864-10-22 12:00:00 TS 18.0000 -37.5000 main 2147 2147 _____________O -1 18.0000 -37.5000 HU 75 10 356
1864294N15326 1864 19 NA NA NOT_NAMED 1864-10-22 15:00:00 TS 18.6050 -37.5298 main 2148 2135 _____________P -1 18.6050 -37.5298 HU 75 13 1
1864294N15326 1864 19 NA NA NOT_NAMED 1864-10-22 18:00:00 TS 19.3000 -37.5000 main 2135 2117 _____________O -1 19.3000 -37.5000 HU 75 13 4
1864294N15326 1864 19 NA NA NOT_NAMED 1864-10-22 21:00:00 TS 19.8997 -37.4318 main 2117 2090 _____________P -1 19.8997 -37.4318 HU 70 12 13
1864294N15326 1864 19 NA NA NOT_NAMED 1864-10-23 00:00:00 TS 20.5000 -37.2000 main 2090 2033 _____________O -1 20.5000 -37.2000 HU 65 14 28
1864294N15326 1864 19 NA NA NOT_NAMED 1864-10-23 03:00:00 TS 21.1503 -36.7104 main 2033 1969 _____________P -1 21.1503 -36.7104 HU 62 17 38
1864294N15326 1864 19 NA NA NOT_NAMED 1864-10-23 06:00:00 TS 21.8000 -36.1000 main 1969 1915 _____________O -1 21.8000 -36.1000 TS 60 17 40
1864294N15326 1864 19 NA NA NOT_NAMED 1864-10-23 09:00:00 TS 22.4146 -35.5643 main 1915 1853 _____________P -1 22.4146 -35.5643 TS 55 16 40
1864294N15326 1864 19 NA NA NOT_NAMED 1864-10-23 12:00:00 TS 23.0000 -35.0000 main 1853 1793 _____________O -1 23.0000 -35.0000 TS 50 16 44
1864294N15326 1864 19 NA NA NOT_NAMED 1864-10-23 15:00:00 TS 23.5575 -34.3571 main 1794 1727 _____________P -1 23.5575 -34.3571 TS 45 16 47
1864294N15326 1864 19 NA NA NOT_NAMED 1864-10-23 18:00:00 TS 24.1000 -33.7000 main 1727 1669 _____________O -1 24.1000 -33.7000 TS 40 16 47
1864294N15326 1864 19 NA NA NOT_NAMED 1864-10-23 21:00:00 TS 24.6422 -33.0918 main 1669 1592 _____________P -1 24.6422 -33.0918 TS 37 16 45
1864294N15326 1864 19 NA NA NOT_NAMED 1864-10-24 00:00:00 TS 25.2000 -32.5000 main 1592 1517 _____________O -1 25.2000 -32.5000 TS 35 16 43
1864294N15326 1864 19 NA NA NOT_NAMED 1864-10-24 03:00:00 TS 25.7997 -31.9070 main 1517 1444 _____________P -1 25.7997 -31.9070 TS 32 16 42
1864294N15326 1864 19 NA NA NOT_NAMED 1864-10-24 06:00:00 TS 26.4000 -31.3000 main 1444 1375 _____________O -1 26.4000 -31.3000 TD 30 16 44
1864294N15326 1864 19 NA NA NOT_NAMED 1864-10-24 09:00:00 TS 26.9632 -30.6612 main 1374 1298 _____________P -1 26.9632 -30.6612 TD 27 16 46
1864294N15326 1864 19 NA NA NOT_NAMED 1864-10-24 12:00:00 ET 27.5000 -30.0000 main 1298 _____________O -1 27.5000 -30.0000 EX 25 16 48

IBTrACS Databaseについて

本データベースは、米国NOAAが公開する1842年以降の世界の熱帯低気圧のベストトラックデータアーカイブInternational Best Track Archive for Climate Stewardship (IBTrACS)を、ウェブで閲覧しやすい形式に変換したものです。

最終更新日:2021-10-19